Time;durP1;ratioP1;P1;durP2;ratioP2;P2;SDS_P1;SDS_P2;PMS_P1;PMS_P2;Temp;Humidity;BMP_temperature;BMP_pressure;BME280_temperature;BME280_humidity;BME280_pressure;Samples;Min_cycle;Max_cycle;Signal;HPM_P1;HPM_P2
2023/02/02 00:00:56;;;;;;;6.63;4.75;;;;;;;4.82;100.00;101381.25;6124384;23;20017;-73
2023/02/02 00:03:23;;;;;;;6.50;4.72;;;;;;;6.66;100.00;101682.56;6067725;23;20025;-75
2023/02/02 00:05:52;;;;;;;5.35;4.45;;;;;;;6.63;100.00;101687.81;6111671;23;20173;-75
2023/02/02 00:08:20;;;;;;;4.75;4.20;;;;;;;6.33;100.00;101640.59;6085911;23;20025;-72
2023/02/02 00:10:47;;;;;;;4.13;3.92;;;;;;;6.64;100.00;101681.72;6087870;23;20030;-73
2023/02/02 00:13:13;;;;;;;5.03;4.53;;;;;;;5.64;100.00;101514.22;6089795;23;20080;-73
2023/02/02 00:15:40;;;;;;;6.97;5.10;;;;;;;5.94;100.00;101575.28;6100245;23;20472;-74
2023/02/02 00:18:06;;;;;;;4.65;4.25;;;;;;;6.48;100.00;101660.31;6084053;23;20040;-72
2023/02/02 00:20:36;;;;;;;6.70;5.13;;;;;;;6.07;100.00;101603.75;6088978;23;20088;-71
2023/02/02 00:23:03;;;;;;;4.32;3.97;;;;;;;6.51;100.00;101665.44;6092679;23;20456;-76
2023/02/02 00:25:29;;;;;;;5.80;3.95;;;;;;;6.28;100.00;101621.59;6062295;23;20026;-74
2023/02/02 00:27:56;;;;;;;5.47;4.32;;;;;;;6.32;100.00;101640.63;6069972;23;20102;-73
2023/02/02 00:30:22;;;;;;;7.55;4.40;;;;;;;6.22;100.00;101611.28;6081385;23;20025;-73
2023/02/02 00:32:51;;;;;;;4.72;4.38;;;;;;;6.11;100.00;101594.97;6115211;23;20492;-74
2023/02/02 00:35:18;;;;;;;5.25;4.75;;;;;;;6.58;100.00;101676.63;6081159;23;20166;-72
2023/02/02 00:37:45;;;;;;;4.93;4.63;;;;;;;6.58;100.00;101655.78;6089247;23;20250;-73
2023/02/02 00:40:11;;;;;;;3.92;3.65;;;;;;;6.13;100.00;101570.63;6095735;23;20131;-74
2023/02/02 00:42:37;;;;;;;4.35;4.15;;;;;;;6.73;100.00;101672.84;6119393;23;20045;-72
2023/02/02 00:45:16;;;;;;;4.95;4.28;;;;;;;6.71;100.00;101656.38;6095970;23;20402;-73
2023/02/02 00:47:45;;;;;;;3.95;3.70;;;;;;;6.43;100.00;101633.44;6099274;23;20096;-74
2023/02/02 00:50:15;;;;;;;4.20;4.00;;;;;;;6.32;100.00;101605.00;6086983;23;20151;-72
2023/02/02 00:52:42;;;;;;;8.43;4.32;;;;;;;6.10;100.00;101567.22;6088153;23;20229;-73
2023/02/02 00:55:09;;;;;;;4.47;4.25;;;;;;;6.71;100.00;101659.81;6089342;23;20054;-73
2023/02/02 00:57:36;;;;;;;9.23;4.90;;;;;;;6.11;100.00;101556.75;6089192;23;20346;-73
2023/02/02 01:00:05;;;;;;;4.15;3.80;;;;;;;6.67;100.00;101662.53;6093376;23;20389;-73
2023/02/02 01:02:33;;;;;;;4.05;3.75;;;;;;;6.53;100.00;101640.19;6089120;23;20075;-73
2023/02/02 01:05:00;;;;;;;4.03;3.83;;;;;;;6.26;100.00;101592.09;6102162;23;20088;-74
2023/02/02 01:07:27;;;;;;;3.97;3.67;;;;;;;6.44;100.00;101624.75;6093677;23;20025;-75
2023/02/02 01:09:53;;;;;;;8.32;4.03;;;;;;;6.40;100.00;101620.50;6082058;23;20033;-75
2023/02/02 01:12:20;;;;;;;5.95;4.00;;;;;;;6.06;100.00;101570.78;6097477;23;20022;-75
2023/02/02 01:14:47;;;;;;;8.85;4.30;;;;;;;6.12;100.00;101571.50;6092892;23;20371;-75
2023/02/02 01:17:13;;;;;;;8.20;4.68;;;;;;;6.62;100.00;101672.22;6092806;23;20065;-75
2023/02/02 01:19:40;;;;;;;17.75;5.22;;;;;;;6.12;100.00;101578.47;6077110;23;20049;-75
2023/02/02 01:22:07;;;;;;;4.10;3.90;;;;;;;6.48;100.00;101655.09;6088282;23;20018;-75
2023/02/02 01:24:34;;;;;;;4.85;4.40;;;;;;;6.16;100.00;101570.56;6089130;23;20029;-75
2023/02/02 01:27:00;;;;;;;5.00;4.65;;;;;;;6.69;100.00;101684.22;6089666;23;20287;-75
2023/02/02 01:29:27;;;;;;;4.45;4.15;;;;;;;6.44;100.00;101666.47;6096174;23;20026;-74
2023/02/02 01:31:53;;;;;;;24.40;5.20;;;;;;;6.18;100.00;101633.94;6122151;23;20093;-74
2023/02/02 01:34:20;;;;;;;7.50;4.63;;;;;;;6.39;100.00;101673.50;6068860;23;20182;-75
2023/02/02 01:36:46;;;;;;;5.35;4.45;;;;;;;5.40;100.00;101529.38;6110377;23;20089;-76
2023/02/02 01:39:13;;;;;;;5.07;4.50;;;;;;;6.00;100.00;101616.03;6095557;23;20048;-75
2023/02/02 01:41:41;;;;;;;5.95;5.22;;;;;;;6.15;100.00;101648.75;6094746;23;20194;-75
2023/02/02 01:44:45;;;;;;;8.55;5.18;;;;;;;6.41;100.00;101710.00;6092516;23;20474;-76
2023/02/02 01:47:12;;;;;;;7.82;5.63;;;;;;;6.42;100.00;101699.53;6096488;23;20045;-75
2023/02/02 01:49:40;;;;;;;5.93;5.28;;;;;;;6.11;100.00;101655.78;6087360;23;20027;-75
2023/02/02 01:52:09;;;;;;;8.27;4.75;;;;;;;5.81;100.00;101633.69;6115296;23;20623;-76
2023/02/02 01:54:43;;;;;;;22.63;5.38;;;;;;;6.16;100.00;101715.66;6082927;23;20135;-75
2023/02/02 01:57:19;;;;;;;4.57;4.28;;;;;;;6.18;100.00;101712.13;6115834;23;20026;-74
2023/02/02 01:59:46;;;;;;;15.18;4.38;;;;;;;5.49;100.00;101596.06;6091045;23;20712;-74
2023/02/02 02:02:13;;;;;;;4.95;3.58;;;;;;;5.69;100.00;101615.69;6122971;23;20017;-75
2023/02/02 02:04:41;;;;;;;4.68;4.18;;;;;;;6.37;100.00;101732.66;6092994;23;20027;-75
2023/02/02 02:07:08;;;;;;;11.38;6.65;;;;;;;4.80;100.00;101473.13;6098219;23;20472;-75
2023/02/02 02:09:34;;;;;;;4.28;4.03;;;;;;;5.76;100.00;101643.34;6084537;23;20019;-75
2023/02/02 02:12:01;;;;;;;4.65;4.25;;;;;;;6.25;100.00;101728.50;6073963;23;20038;-75
2023/02/02 02:17:29;;;;;;;14.00;5.70;;;;;;;5.85;100.00;101647.53;6103305;23;20397;-75
2023/02/02 02:26:35;;;;;;;5.10;4.43;;;;;;;6.34;100.00;101719.69;6085757;23;20030;-74
2023/02/02 02:29:19;;;;;;;6.70;5.13;;;;;;;6.35;100.00;101710.97;6095666;23;20041;-75
2023/02/02 02:32:05;;;;;;;7.43;5.90;;;;;;;5.93;100.00;101637.84;6089829;23;20033;-76
2023/02/02 02:34:58;;;;;;;11.90;5.78;;;;;;;6.17;100.00;101705.22;6065866;23;20077;-76
2023/02/02 02:37:43;;;;;;;;;;;;;;;6.35;100.00;101701.41;6067643;23;20022;-75
2023/02/02 02:40:19;;;;;;;7.32;3.95;;;;;;;6.39;100.00;101708.28;6116130;23;20387;-75
2023/02/02 02:42:52;;;;;;;9.25;6.20;;;;;;;6.36;100.00;101708.34;6089999;23;20587;-74
2023/02/02 02:45:20;;;;;;;7.43;5.18;;;;;;;6.22;100.00;101683.41;6129089;23;20217;-76
2023/02/02 02:47:48;;;;;;;4.78;4.47;;;;;;;6.39;100.00;101708.28;6096595;23;20017;-75
2023/02/02 02:50:15;;;;;;;3.65;3.50;;;;;;;6.08;100.00;101644.56;6094190;23;20278;-75
2023/02/02 02:52:42;;;;;;;9.45;4.90;;;;;;;6.23;100.00;101701.59;6091498;23;20037;-76
2023/02/02 02:55:10;;;;;;;5.18;4.20;;;;;;;6.15;100.00;101659.19;6105144;23;20459;-75
2023/02/02 02:57:50;;;;;;;5.18;3.88;;;;;;;5.78;100.00;101594.69;6072194;23;20029;-75
2023/02/02 03:00:35;;;;;;;5.25;4.75;;;;;;;6.42;100.00;101709.13;6120807;23;20045;-76
2023/02/02 03:03:13;;;;;;;6.80;5.07;;;;;;;6.14;100.00;101666.16;6094068;23;20058;-74
2023/02/02 03:06:00;;;;;;;5.47;4.30;;;;;;;6.33;100.00;101684.91;6102133;23;20175;-75
2023/02/02 03:08:36;;;;;;;8.05;4.85;;;;;;;6.53;100.00;101707.16;6089696;23;20073;-75
2023/02/02 03:11:05;;;;;;;5.00;4.57;;;;;;;5.99;100.00;101623.00;6075048;23;20036;-74
2023/02/02 03:13:33;;;;;;;9.57;3.97;;;;;;;6.16;100.00;101658.31;6092727;23;20031;-76
2023/02/02 03:16:00;;;;;;;4.97;4.57;;;;;;;6.47;100.00;101709.88;6076191;23;20089;-75
2023/02/02 03:18:29;;;;;;;5.25;4.85;;;;;;;6.43;100.00;101697.78;6084907;23;20018;-74
2023/02/02 03:20:56;;;;;;;11.93;5.15;;;;;;;6.45;100.00;101715.09;6076193;23;20040;-76
2023/02/02 03:23:23;;;;;;;5.85;5.10;;;;;;;6.49;100.00;101705.50;6089895;23;20432;-75
2023/02/02 03:25:50;;;;;;;4.10;3.85;;;;;;;6.08;100.00;101650.63;6091993;23;20408;-75
2023/02/02 03:28:17;;;;;;;5.68;4.45;;;;;;;6.36;100.00;101674.44;6093664;23;20026;-75
2023/02/02 03:30:46;;;;;;;5.47;4.95;;;;;;;5.82;100.00;101598.13;6096301;23;20214;-75
2023/02/02 03:33:14;;;;;;;4.63;4.28;;;;;;;6.06;100.00;101667.19;6097421;23;20028;-76
2023/02/02 03:35:41;;;;;;;5.85;4.50;;;;;;;6.49;100.00;101710.69;6100250;23;20028;-75
2023/02/02 03:38:07;;;;;;;4.13;3.85;;;;;;;6.09;100.00;101641.91;6100135;23;20148;-75
2023/02/02 03:40:34;;;;;;;4.20;4.00;;;;;;;5.93;100.00;101619.59;6096062;23;20014;-75
2023/02/02 03:43:01;;;;;;;4.75;4.45;;;;;;;6.32;100.00;101674.53;6081693;23;20089;-75
2023/02/02 03:45:29;;;;;;;4.35;4.10;;;;;;;6.29;100.00;101661.53;6090534;23;20045;-76
2023/02/02 03:47:58;;;;;;;10.48;4.85;;;;;;;6.26;100.00;101669.44;6127239;23;20033;-74
2023/02/02 03:50:24;;;;;;;23.80;4.75;;;;;;;6.50;100.00;101712.44;6097461;23;20311;-75
2023/02/02 03:52:52;;;;;;;4.13;3.92;;;;;;;6.28;100.00;101689.38;6120939;23;20025;-76
2023/02/02 03:55:19;;;;;;;8.23;5.10;;;;;;;6.46;100.00;101710.78;6091742;23;20025;-75
2023/02/02 03:57:47;;;;;;;4.32;3.78;;;;;;;5.84;100.00;101609.38;6119686;23;20032;-76
2023/02/02 04:00:14;;;;;;;4.22;3.90;;;;;;;6.29;100.00;101685.00;6095295;23;20041;-75
2023/02/02 04:02:41;;;;;;;5.43;4.30;;;;;;;6.29;100.00;101696.28;6102396;23;20308;-75
2023/02/02 04:05:07;;;;;;;4.50;4.15;;;;;;;6.16;100.00;101673.94;6091911;23;20033;-75
2023/02/02 04:07:34;;;;;;;3.90;3.70;;;;;;;6.43;100.00;101716.03;6129846;23;20442;-75
2023/02/02 04:10:01;;;;;;;8.00;4.20;;;;;;;6.27;100.00;101690.25;6069302;23;20086;-75
2023/02/02 04:12:27;;;;;;;4.95;4.55;;;;;;;6.24;100.00;101708.56;6090492;23;20159;-77
2023/02/02 04:14:54;;;;;;;5.28;4.88;;;;;;;5.29;100.00;101514.81;6091895;23;20037;-75
2023/02/02 04:17:20;;;;;;;7.00;5.30;;;;;;;5.84;100.00;101618.03;6102157;23;20489;-75
2023/02/02 04:19:47;;;;;;;4.07;3.83;;;;;;;6.30;100.00;101691.94;6088057;23;20089;-74
2023/02/02 04:22:13;;;;;;;8.52;4.13;;;;;;;6.48;100.00;101722.03;6126557;23;20033;-76
2023/02/02 04:24:40;;;;;;;5.40;4.00;;;;;;;6.42;100.00;101703.91;6078000;23;20076;-75
2023/02/02 04:27:06;;;;;;;6.90;4.68;;;;;;;6.29;100.00;101691.06;6124132;23;20021;-74
2023/02/02 04:29:33;;;;;;;5.35;4.10;;;;;;;6.36;100.00;101703.13;6078321;23;20088;-76
2023/02/02 04:31:59;;;;;;;4.50;4.25;;;;;;;6.34;100.00;101701.44;6107524;23;20020;-75
2023/02/02 04:34:26;;;;;;;4.05;3.75;;;;;;;6.25;100.00;101686.78;6076099;23;20091;-77
2023/02/02 04:36:53;;;;;;;3.50;3.40;;;;;;;6.35;100.00;101701.41;6124427;23;20067;-76
2023/02/02 04:39:20;;;;;;;3.85;3.65;;;;;;;6.45;100.00;101732.50;6092078;23;20021;-75
2023/02/02 04:41:46;;;;;;;3.65;3.45;;;;;;;6.40;100.00;101727.38;6104762;23;20021;-75
2023/02/02 04:44:17;;;;;;;6.07;4.47;;;;;;;5.76;100.00;101627.72;6085411;23;20387;-75
2023/02/02 04:46:44;;;;;;;6.38;3.60;;;;;;;6.37;100.00;101730.91;6105226;23;20570;-74
2023/02/02 04:49:11;;;;;;;5.38;4.85;;;;;;;6.34;100.00;101730.97;6110669;23;20076;-75
2023/02/02 04:51:40;;;;;;;10.02;3.85;;;;;;;6.30;100.00;101731.06;6113690;23;20511;-76
2023/02/02 04:54:07;;;;;;;3.65;3.45;;;;;;;6.32;100.00;101729.28;6103366;23;20018;-76
2023/02/02 04:56:34;;;;;;;3.92;3.72;;;;;;;6.17;100.00;101712.16;6103809;23;20014;-76
2023/02/02 04:59:00;;;;;;;5.55;4.18;;;;;;;6.27;100.00;101734.56;6111896;23;20001;-76
2023/02/02 05:01:28;;;;;;;4.43;4.20;;;;;;;5.86;100.00;101657.94;6081486;23;20035;-76
2023/02/02 05:03:54;;;;;;;4.90;4.15;;;;;;;6.02;100.00;101681.16;6110366;23;20009;-75
2023/02/02 05:06:21;;;;;;;3.60;3.40;;;;;;;6.29;100.00;101709.31;6104677;23;20075;-74
2023/02/02 05:08:48;;;;;;;6.35;4.40;;;;;;;6.11;100.00;101680.97;6100794;23;20017;-76
2023/02/02 05:11:22;;;;;;;6.53;3.75;;;;;;;6.39;100.00;101734.38;6071919;23;20349;-75
2023/02/02 05:13:52;;;;;;;4.72;4.43;;;;;;;6.06;100.00;101685.44;6096582;23;20041;-75
2023/02/02 05:16:20;;;;;;;12.07;5.18;;;;;;;6.42;100.00;101735.19;6131010;23;20084;-78
2023/02/02 05:18:52;;;;;;;4.15;3.92;;;;;;;6.41;100.00;101747.34;6102387;23;20026;-74
2023/02/02 05:21:20;;;;;;;6.13;4.45;;;;;;;6.32;100.00;101711.88;6121307;23;20029;-75
2023/02/02 05:23:46;;;;;;;8.88;4.70;;;;;;;6.39;100.00;101733.47;6100904;23;20468;-75
2023/02/02 05:26:16;;;;;;;10.80;4.18;;;;;;;6.19;100.00;101685.19;6090323;23;20041;-74
2023/02/02 05:28:42;;;;;;;3.95;3.75;;;;;;;5.85;100.00;101621.47;6083292;23;20021;-75
2023/02/02 05:31:09;;;;;;;4.35;3.97;;;;;;;6.16;100.00;101674.81;6107699;23;20013;-76
2023/02/02 05:33:36;;;;;;;5.47;3.70;;;;;;;5.71;100.00;101606.09;6112283;23;20006;-76
2023/02/02 05:36:03;;;;;;;7.80;4.30;;;;;;;6.05;100.00;101635.03;6099361;23;20025;-76
2023/02/02 05:38:30;;;;;;;3.90;3.70;;;;;;;6.22;100.00;101684.25;6127116;23;20084;-76
2023/02/02 05:40:57;;;;;;;4.60;4.20;;;;;;;6.43;100.00;101713.44;6072563;23;20408;-76
2023/02/02 05:43:25;;;;;;;4.38;3.95;;;;;;;5.56;100.00;101586.41;6121354;23;20277;-76
2023/02/02 05:45:54;;;;;;;6.53;5.10;;;;;;;6.15;100.00;101680.03;6074908;23;20058;-75
2023/02/02 05:48:21;;;;;;;9.07;3.95;;;;;;;5.95;100.00;101636.09;6108524;23;20024;-76
2023/02/02 05:51:13;;;;;;;9.93;4.85;;;;;;;6.35;100.00;101701.41;6098786;23;20039;-77
2023/02/02 05:53:39;;;;;;;4.10;3.90;;;;;;;6.05;100.00;101660.25;6122942;23;20036;-76
2023/02/02 05:56:06;;;;;;;6.60;4.97;;;;;;;6.36;100.00;101705.72;6094268;23;20024;-74
2023/02/02 05:58:32;;;;;;;5.13;4.72;;;;;;;6.35;100.00;101709.22;6121250;23;20442;-76
2023/02/02 06:00:59;;;;;;;10.13;4.40;;;;;;;6.00;100.00;101662.94;6072629;23;20746;-75
2023/02/02 06:03:26;;;;;;;4.60;4.20;;;;;;;6.19;100.00;101685.19;6130905;23;20025;-76
2023/02/02 06:05:52;;;;;;;4.95;4.53;;;;;;;6.42;100.00;101711.72;6102038;23;20471;-74
2023/02/02 06:08:22;;;;;;;4.32;4.13;;;;;;;6.16;100.00;101684.38;6069516;23;20022;-75
2023/02/02 06:10:48;;;;;;;11.50;4.05;;;;;;;5.46;100.00;101588.28;6130293;23;20033;-76
2023/02/02 06:13:15;;;;;;;6.25;4.28;;;;;;;6.11;100.00;101694.00;6096859;23;20029;-74
2023/02/02 06:15:42;;;;;;;9.77;4.55;;;;;;;6.11;100.00;101722.69;6099055;23;20036;-74
2023/02/02 06:18:09;;;;;;;4.93;4.63;;;;;;;5.71;100.00;101640.84;6074879;23;20086;-75
2023/02/02 06:20:36;;;;;;;9.38;4.03;;;;;;;5.94;100.00;101679.50;6126804;23;20048;-74
2023/02/02 06:23:03;;;;;;;5.20;4.68;;;;;;;5.67;100.00;101653.91;6072970;23;20056;-74
2023/02/02 06:25:30;;;;;;;4.00;3.80;;;;;;;6.27;100.00;101742.38;6102226;23;20017;-75
2023/02/02 06:27:58;;;;;;;4.75;4.40;;;;;;;6.23;100.00;101730.28;6086749;23;20045;-75
2023/02/02 06:30:26;;;;;;;4.40;4.10;;;;;;;6.22;100.00;101730.34;6131718;23;20032;-75
2023/02/02 06:32:53;;;;;;;4.03;3.83;;;;;;;6.04;100.00;101723.69;6103145;23;20056;-75
2023/02/02 06:35:22;;;;;;;9.88;5.30;;;;;;;6.08;100.00;101728.81;6094633;23;20404;-76
2023/02/02 06:37:49;;;;;;;7.13;4.88;;;;;;;5.90;100.00;101693.47;6093789;23;20033;-76
2023/02/02 06:40:16;;;;;;;4.90;4.45;;;;;;;5.82;100.00;101665.84;6125157;23;20040;-75
2023/02/02 06:42:43;;;;;;;4.35;4.05;;;;;;;6.03;100.00;101699.34;6098048;23;20099;-74
2023/02/02 06:45:09;;;;;;;4.50;4.20;;;;;;;5.41;100.00;101590.09;6122588;23;20094;-75
2023/02/02 06:47:36;;;;;;;4.22;3.95;;;;;;;6.27;100.00;101729.34;6098381;23;20006;-75
2023/02/02 06:50:04;;;;;;;4.07;3.88;;;;;;;6.23;100.00;101732.03;6093702;23;20029;-74
2023/02/02 06:52:30;;;;;;;8.90;4.55;;;;;;;5.90;100.00;101703.03;6098461;23;20025;-75
2023/02/02 06:54:57;;;;;;;5.03;4.72;;;;;;;5.64;100.00;101652.22;6089692;23;20355;-74
2023/02/02 06:57:24;;;;;;;11.40;4.20;;;;;;;5.84;100.00;101680.53;6124597;23;20394;-74
2023/02/02 06:59:51;;;;;;;14.05;4.15;;;;;;;6.19;100.00;101731.22;6097324;23;20021;-75
2023/02/02 07:02:17;;;;;;;9.23;4.38;;;;;;;5.62;100.00;101640.13;6076576;23;20024;-74
2023/02/02 07:04:46;;;;;;;9.70;5.20;;;;;;;6.20;100.00;101746.00;6123943;23;20089;-74
2023/02/02 07:07:13;;;;;;;4.53;4.22;;;;;;;6.14;100.00;101739.13;6100149;23;20429;-74
2023/02/02 07:09:39;;;;;;;4.35;3.92;;;;;;;6.16;100.00;101746.94;6075457;23;20029;-74
2023/02/02 07:12:06;;;;;;;4.40;4.20;;;;;;;5.53;100.00;101651.53;6097096;23;20038;-75
2023/02/02 07:14:32;;;;;;;5.30;4.28;;;;;;;5.98;100.00;101722.88;6059215;23;20042;-74
2023/02/02 07:16:59;;;;;;;4.25;3.97;;;;;;;6.02;100.00;101748.91;6080612;23;20032;-73
2023/02/02 07:19:25;;;;;;;7.13;3.55;;;;;;;5.83;100.00;101711.81;6128929;23;20075;-76
2023/02/02 07:21:51;;;;;;;6.50;4.57;;;;;;;5.70;100.00;101657.34;6064983;23;20026;-77
2023/02/02 07:24:18;;;;;;;4.30;4.10;;;;;;;6.16;100.00;101763.41;6100816;23;20038;-77
2023/02/02 07:26:44;;;;;;;7.80;4.82;;;;;;;5.93;100.00;101703.84;6094339;23;20033;-76
2023/02/02 07:29:15;;;;;;;4.05;3.85;;;;;;;5.91;100.00;101687.38;6103794;23;20017;-77
2023/02/02 07:31:41;;;;;;;5.43;4.63;;;;;;;5.68;100.00;101672.13;6096467;23;20286;-80
2023/02/02 07:34:08;;;;;;;4.43;4.13;;;;;;;5.73;100.00;101682.47;6115268;23;20005;-75
2023/02/02 07:36:36;;;;;;;5.65;4.60;;;;;;;5.90;100.00;101706.50;6079467;23;20027;-76
2023/02/02 07:39:03;;;;;;;7.07;4.65;;;;;;;6.18;100.00;101760.78;6070987;23;20002;-76
2023/02/02 07:41:32;;;;;;;12.57;4.40;;;;;;;6.16;100.00;101753.00;6068182;23;20276;-78
2023/02/02 07:43:59;;;;;;;5.30;4.82;;;;;;;5.52;100.00;101673.25;6100646;23;20017;-76
2023/02/02 07:46:25;;;;;;;4.47;4.18;;;;;;;5.73;100.00;101696.38;6078766;23;20505;-75
2023/02/02 07:48:56;;;;;;;4.88;4.47;;;;;;;6.07;100.00;101747.06;6102084;23;20033;-80
2023/02/02 07:51:23;;;;;;;11.20;6.50;;;;;;;6.08;100.00;101747.06;6068405;23;20037;-75
2023/02/02 07:53:52;;;;;;;4.00;3.70;;;;;;;6.22;100.00;101772.03;6106898;23;20720;-78
2023/02/02 07:56:21;;;;;;;6.15;4.10;;;;;;;5.63;100.00;101653.09;6073639;23;20024;-79
2023/02/02 07:58:49;;;;;;;5.13;4.63;;;;;;;6.02;100.00;101741.09;6096088;23;20432;-78
2023/02/02 08:01:21;;;;;;;16.50;12.82;;;;;;;6.31;100.00;101769.25;6024791;23;20363;-77
2023/02/02 08:03:49;;;;;;;4.60;4.22;;;;;;;5.08;100.00;101555.09;6077804;23;20635;-78
2023/02/02 08:06:22;;;;;;;9.50;5.05;;;;;;;6.32;100.00;101753.59;6077247;23;20022;-79
2023/02/02 08:08:49;;;;;;;8.30;5.68;;;;;;;6.17;100.00;101751.25;6107982;23;20371;-77
2023/02/02 08:11:19;;;;;;;4.82;4.43;;;;;;;6.34;100.00;101770.06;6070570;23;20494;-78
2023/02/02 08:13:48;;;;;;;5.88;4.80;;;;;;;6.34;100.00;101774.44;6082607;23;20061;-78
2023/02/02 08:16:15;;;;;;;4.20;3.90;;;;;;;5.91;100.00;101695.19;6109011;23;20025;-78
2023/02/02 08:18:42;;;;;;;4.90;4.50;;;;;;;6.16;100.00;101741.72;6138686;23;20121;-78
2023/02/02 08:21:10;;;;;;;5.85;5.43;;;;;;;5.73;100.00;101685.06;6100225;23;20022;-78
2023/02/02 08:23:38;;;;;;;4.82;4.40;;;;;;;6.29;100.00;101786.66;6104687;23;20079;-78
2023/02/02 08:26:25;;;;;;;4.38;4.07;;;;;;;6.35;100.00;101794.38;6101442;23;20082;-80
2023/02/02 08:29:04;;;;;;;16.35;6.90;;;;;;;6.35;100.00;101789.16;6125540;23;20426;-79
2023/02/02 08:31:36;;;;;;;4.50;4.20;;;;;;;6.32;100.00;101791.84;6094906;23;20110;-77
2023/02/02 08:34:04;;;;;;;5.45;4.95;;;;;;;5.94;100.00;101726.41;6074548;23;20026;-79
2023/02/02 08:36:34;;;;;;;5.00;4.53;;;;;;;6.36;100.00;101823.03;6097826;23;20025;-78
2023/02/02 08:39:04;;;;;;;8.02;5.07;;;;;;;6.41;100.00;101799.50;6075373;23;20089;-76
2023/02/02 08:41:31;;;;;;;7.05;4.85;;;;;;;6.26;100.00;101781.53;6098576;23;20052;-78
2023/02/02 08:43:58;;;;;;;3.80;3.60;;;;;;;6.05;100.00;101759.28;6092410;23;20045;-79
2023/02/02 08:46:25;;;;;;;5.55;4.70;;;;;;;5.67;100.00;101700.78;6130087;23;20030;-78
2023/02/02 08:48:51;;;;;;;15.18;4.20;;;;;;;5.59;100.00;101673.16;6109618;23;20036;-77
2023/02/02 08:51:18;;;;;;;4.70;4.40;;;;;;;5.72;100.00;101719.81;6102786;23;20100;-78
2023/02/02 08:53:46;;;;;;;11.68;4.25;;;;;;;6.07;100.00;101765.31;6106864;23;20030;-77
2023/02/02 08:56:15;;;;;;;5.50;5.05;;;;;;;6.52;100.00;101812.38;6090429;23;20021;-76
2023/02/02 08:58:46;;;;;;;6.18;5.72;;;;;;;5.36;100.00;101616.22;6075435;23;20476;-78
2023/02/02 09:01:17;;;;;;;6.35;4.68;;;;;;;6.15;100.00;101750.41;6070308;23;20022;-76
2023/02/02 09:03:44;;;;;;;4.65;4.40;;;;;;;6.58;100.00;101823.53;6103706;23;20025;-76
2023/02/02 09:06:15;;;;;;;7.65;4.97;;;;;;;6.13;100.00;101762.59;6129879;23;20076;-78
2023/02/02 09:08:42;;;;;;;5.72;5.32;;;;;;;6.38;100.00;101776.09;6108021;23;20622;-77
2023/02/02 09:11:15;;;;;;;4.90;4.50;;;;;;;6.76;100.00;101816.28;6090748;23;20655;-78
2023/02/02 09:13:44;;;;;;;4.15;3.95;;;;;;;6.76;100.00;101842.38;6100707;23;20017;-77
2023/02/02 09:16:12;;;;;;;20.73;4.65;;;;;;;6.43;100.00;101795.13;6095402;23;20083;-77
2023/02/02 09:18:40;;;;;;;4.53;4.22;;;;;;;6.64;100.00;101819.97;6075015;23;20271;-79
2023/02/02 09:21:09;;;;;;;15.80;4.38;;;;;;;6.51;100.00;101821.06;6102970;23;20033;-77
2023/02/02 09:23:38;;;;;;;5.60;4.97;;;;;;;6.63;100.00;101846.94;6102290;23;20031;-78
2023/02/02 09:26:19;;;;;;;5.38;4.90;;;;;;;6.25;100.00;101803.25;6097034;23;20018;-77
2023/02/02 09:28:55;;;;;;;14.43;5.15;;;;;;;6.69;100.00;101859.88;6077106;23;20025;-77
2023/02/02 09:31:22;;;;;;;4.85;4.45;;;;;;;6.66;100.00;101869.50;6104910;23;20017;-78
2023/02/02 09:33:49;;;;;;;4.43;4.03;;;;;;;6.29;100.00;101838.81;6103882;23;20022;-76
2023/02/02 09:36:19;;;;;;;15.90;6.43;;;;;;;6.42;100.00;101868.16;6130643;23;20439;-78
2023/02/02 09:38:46;;;;;;;5.28;4.93;;;;;;;6.39;100.00;101877.75;6093005;23;20041;-76
2023/02/02 09:41:35;;;;;;;10.88;4.78;;;;;;;5.97;100.00;101773.28;6097784;23;20045;-77
2023/02/02 09:44:29;;;;;;;4.63;4.43;;;;;;;6.59;100.00;101892.22;6095196;23;20443;-77
2023/02/02 09:47:14;;;;;;;5.97;4.88;;;;;;;6.41;100.00;101909.00;6067463;23;20193;-78
2023/02/02 09:49:53;;;;;;;4.75;4.38;;;;;;;6.38;100.00;101912.53;6073223;23;20343;-79
2023/02/02 09:52:26;;;;;;;4.57;4.28;;;;;;;6.37;100.00;101908.22;6092892;23;20145;-78
2023/02/02 09:54:59;;;;;;;5.55;5.25;;;;;;;6.27;100.00;101892.72;6120861;23;20518;-77
2023/02/02 09:57:32;;;;;;;5.72;5.15;;;;;;;6.44;100.00;101918.56;6072776;23;20301;-77
2023/02/02 09:59:58;;;;;;;4.80;4.53;;;;;;;5.77;100.00;101801.34;6132943;23;20029;-77
2023/02/02 10:02:32;;;;;;;5.85;5.15;;;;;;;6.57;100.00;101913.13;6067942;23;21683;-77
2023/02/02 10:05:10;;;;;;;4.85;4.55;;;;;;;6.58;100.00;101938.31;6129639;23;20467;-77
2023/02/02 10:07:41;;;;;;;11.30;5.25;;;;;;;6.65;100.00;101918.19;6097108;23;20372;-79
2023/02/02 10:10:25;;;;;;;7.22;5.72;;;;;;;6.39;100.00;101869.94;6094695;23;20280;-79
2023/02/02 10:13:02;;;;;;;6.30;4.97;;;;;;;5.82;100.00;101776.09;6106783;23;20381;-77
2023/02/02 10:15:32;;;;;;;5.53;5.03;;;;;;;6.78;100.00;101931.91;6126514;23;20086;-78
2023/02/02 10:18:08;;;;;;;5.90;5.35;;;;;;;6.70;100.00;101919.00;6076299;23;20456;-77
2023/02/02 10:20:53;;;;;;;4.47;4.18;;;;;;;6.71;100.00;101930.28;6117518;23;20200;-77
2023/02/02 10:23:37;;;;;;;9.43;4.88;;;;;;;6.76;100.00;101929.31;6072909;23;20022;-78
2023/02/02 10:26:13;;;;;;;4.70;4.28;;;;;;;6.70;100.00;101942.47;6067915;23;20246;-78
2023/02/02 10:29:16;;;;;;;5.45;4.72;;;;;;;6.74;100.00;101951.97;6102085;23;20080;-78
2023/02/02 10:31:52;;;;;;;4.53;4.32;;;;;;;6.80;100.00;101961.44;5949807;23;20039;-74
2023/02/02 10:34:35;;;;;;;5.60;5.05;;;;;;;6.38;100.00;101883.00;6104650;23;20476;-78
2023/02/02 10:37:27;;;;;;;4.95;4.50;;;;;;;6.27;100.00;101861.44;6071108;23;20030;-77
2023/02/02 10:40:19;;;;;;;5.22;4.78;;;;;;;6.88;100.00;101966.53;6119994;23;20040;-77
2023/02/02 10:45:42;;;;;;;6.30;5.35;;;;;;;6.32;100.00;101829.19;6102819;23;20428;-76
2023/02/02 10:48:19;;;;;;;10.25;6.05;;;;;;;7.01;100.00;101947.16;6128559;23;20033;-77
2023/02/02 10:50:53;;;;;;;7.30;5.40;;;;;;;7.07;100.00;101952.28;6102717;23;20029;-76
2023/02/02 10:53:21;;;;;;;14.98;5.97;;;;;;;6.82;100.00;101904.88;6122440;23;20042;-77
2023/02/02 10:55:57;;;;;;;5.25;4.90;;;;;;;7.22;100.00;101956.38;6072027;23;20494;-75
2023/02/02 10:58:30;;;;;;;10.23;5.25;;;;;;;7.17;100.00;101946.00;6096849;23;20018;-79
2023/02/02 11:01:00;;;;;;;5.05;4.65;;;;;;;6.88;100.00;101904.78;6076608;23;20056;-76
2023/02/02 11:03:28;;;;;;;6.03;5.53;;;;;;;7.18;100.00;101962.56;6123903;23;20013;-76
2023/02/02 11:08:46;;;;;;;5.22;4.72;;;;;;;6.59;100.00;101858.31;6121278;23;20047;-77
2023/02/02 11:11:23;;;;;;;5.18;4.80;;;;;;;6.74;100.00;101897.19;6091388;23;20405;-77
2023/02/02 11:14:08;;;;;;;5.72;4.88;;;;;;;7.18;100.00;101954.72;6072211;23;20178;-77
2023/02/02 11:16:39;;;;;;;6.07;5.63;;;;;;;6.97;100.00;101933.31;6095214;23;20033;-76
2023/02/02 11:19:15;;;;;;;7.40;6.70;;;;;;;7.26;100.00;101967.66;6095036;23;20281;-76
2023/02/02 11:21:47;;;;;;;6.00;4.97;;;;;;;7.22;100.00;101965.94;6100081;23;20235;-77
2023/02/02 11:24:20;;;;;;;11.23;5.32;;;;;;;6.98;100.00;101921.13;6119592;23;20002;-76
2023/02/02 11:26:54;;;;;;;4.95;4.60;;;;;;;6.46;100.00;101817.69;6065781;23;20205;-76
2023/02/02 11:29:28;;;;;;;5.07;4.65;;;;;;;7.56;100.00;101980.13;6122884;23;20045;-77
2023/02/02 11:31:54;;;;;;;4.82;4.55;;;;;;;6.93;100.00;101853.34;6090457;23;20840;-76
2023/02/02 11:34:27;;;;;;;5.25;4.60;;;;;;;7.18;100.00;101933.84;6116878;23;20042;-76
2023/02/02 11:37:12;;;;;;;5.00;4.60;;;;;;;7.46;100.00;101968.13;6072094;23;20029;-76
2023/02/02 11:39:43;;;;;;;8.95;5.43;;;;;;;7.22;100.00;101945.06;6126376;23;20047;-77
2023/02/02 11:42:17;;;;;;;6.78;4.78;;;;;;;7.48;100.00;101975.94;6088808;23;20014;-77
2023/02/02 11:44:50;;;;;;;8.13;4.60;;;;;;;7.35;100.00;101938.72;6133645;23;20676;-77
2023/02/02 11:47:21;;;;;;;5.15;4.80;;;;;;;7.64;100.00;101973.88;6079092;23;20009;-77
2023/02/02 11:49:50;;;;;;;5.15;4.82;;;;;;;5.52;100.00;101644.63;6099858;23;20519;-77
2023/02/02 11:52:21;;;;;;;10.43;5.57;;;;;;;7.03;100.00;101830.53;6078327;23;20037;-77